createdAt,value
2023-04-04T00:00:53.636Z,62.01
2023-04-04T00:04:42.864Z,62.00
2023-04-04T00:08:32.151Z,62.30
2023-04-04T00:12:13.873Z,62.57
2023-04-04T00:15:55.630Z,62.59
2023-04-04T00:19:44.843Z,62.69
2023-04-04T00:23:34.246Z,62.87
2023-04-04T00:27:23.592Z,62.89
2023-04-04T00:31:12.986Z,63.22
2023-04-04T00:35:02.070Z,63.13
2023-04-04T00:38:51.158Z,63.09
2023-04-04T00:42:32.784Z,63.32
2023-04-04T00:46:21.031Z,63.38
2023-04-04T00:50:09.810Z,63.61
2023-04-04T00:53:58.996Z,63.34
2023-04-04T00:57:48.168Z,63.61
2023-04-04T01:01:37.345Z,63.66
2023-04-04T01:05:26.595Z,63.82
2023-04-04T01:09:05.931Z,64.09
2023-04-04T01:12:55.002Z,64.10
2023-04-04T01:16:44.323Z,64.38
2023-04-04T01:20:45.737Z,64.46
2023-04-04T01:24:39.605Z,65.11
2023-04-04T01:43:51.538Z,65.53
2023-04-04T01:47:35.174Z,65.61
2023-04-04T01:51:24.290Z,65.86
2023-04-04T01:55:13.445Z,65.98
2023-04-04T01:59:02.556Z,65.99
2023-04-04T02:02:51.890Z,65.99
2023-04-04T02:06:41.233Z,66.04
2023-04-04T02:10:29.138Z,65.88
2023-04-04T02:14:18.272Z,65.88
2023-04-04T02:18:01.890Z,65.98
2023-04-04T02:21:57.369Z,66.05
2023-04-04T02:25:46.639Z,66.17
2023-04-04T02:29:29.119Z,66.22
2023-04-04T02:33:18.221Z,66.34
2023-04-04T02:37:07.345Z,66.19
2023-04-04T02:40:43.216Z,66.12
2023-04-04T02:44:32.420Z,66.31
2023-04-04T02:48:07.747Z,66.52
2023-04-04T02:51:45.778Z,66.68
2023-04-04T02:55:27.610Z,66.78
2023-04-04T02:59:16.769Z,66.99
2023-04-04T03:03:06.014Z,67.15
2023-04-04T03:06:55.705Z,67.28
2023-04-04T03:10:45.287Z,67.38
2023-04-04T03:14:34.763Z,67.57
2023-04-04T03:18:46.788Z,67.72
2023-04-04T03:22:35.865Z,67.87
2023-04-04T03:26:24.953Z,68.24
2023-04-04T03:30:13.357Z,68.40
2023-04-04T03:34:02.463Z,68.52
2023-04-04T03:37:51.351Z,68.74
2023-04-04T03:41:43.206Z,68.89
2023-04-04T03:45:32.296Z,68.91
2023-04-04T03:49:21.461Z,69.13
2023-04-04T03:53:10.077Z,69.45
2023-04-04T03:56:50.223Z,69.47
2023-04-04T04:00:32.592Z,69.40
2023-04-04T04:04:22.079Z,69.43
2023-04-04T04:08:10.611Z,69.58
2023-04-04T04:12:00.997Z,69.42
2023-04-04T04:15:49.094Z,69.72
2023-04-04T04:34:30.552Z,70.40
2023-04-04T04:38:19.411Z,70.68
2023-04-04T04:45:59.594Z,70.81
2023-04-04T04:49:40.781Z,71.02
2023-04-04T04:53:30.254Z,71.27
2023-04-04T04:57:21.168Z,71.60
2023-04-04T05:00:53.583Z,71.83
2023-04-04T05:04:43.528Z,71.99
2023-04-04T05:08:05.564Z,72.18
2023-04-04T05:11:30.669Z,72.37
2023-04-04T05:14:50.152Z,72.33
2023-04-04T05:18:14.456Z,72.19
2023-04-04T05:21:19.879Z,72.14
2023-04-04T05:24:43.035Z,72.17
2023-04-04T05:27:55.863Z,72.13
2023-04-04T05:31:12.871Z,72.07
2023-04-04T05:34:25.660Z,71.97
2023-04-04T05:37:56.306Z,72.03
2023-04-04T05:40:51.548Z,71.80
2023-04-04T05:43:51.584Z,71.84
2023-04-04T05:47:10.215Z,71.56
2023-04-04T05:50:14.714Z,71.46
2023-04-04T05:53:30.247Z,71.52
2023-04-04T05:57:01.066Z,71.55
2023-04-04T06:00:11.742Z,71.27
2023-04-04T06:03:32.394Z,71.26
2023-04-04T06:06:59.462Z,71.01
2023-04-04T06:09:51.711Z,70.88
2023-04-04T06:13:18.583Z,70.71
2023-04-04T06:16:28.669Z,70.86
2023-04-04T06:19:39.715Z,70.67
2023-04-04T06:22:29.161Z,70.61
2023-04-04T06:25:24.778Z,70.39
2023-04-04T06:28:32.378Z,70.32
2023-04-04T06:32:08.029Z,70.23
2023-04-04T06:35:57.186Z,70.19
2023-04-04T06:39:46.320Z,70.00
2023-04-04T06:43:35.434Z,69.70
2023-04-04T06:47:24.612Z,69.40
2023-04-04T06:51:14.153Z,69.18
2023-04-04T06:54:57.581Z,68.62
2023-04-04T06:58:46.740Z,68.33
2023-04-04T07:02:35.915Z,67.90
2023-04-04T07:06:18.373Z,67.60
2023-04-04T07:10:07.542Z,67.56
2023-04-04T07:13:56.666Z,67.04
2023-04-04T07:17:45.808Z,66.51
2023-04-04T07:21:34.956Z,66.27
2023-04-04T07:25:14.398Z,65.47
2023-04-04T07:29:03.535Z,65.09
2023-04-04T07:32:52.741Z,64.66
2023-04-04T07:36:42.021Z,64.69
2023-04-04T07:40:02.961Z,64.39
2023-04-04T07:43:52.086Z,64.44
2023-04-04T07:47:41.263Z,64.09
2023-04-04T07:51:30.415Z,63.53
2023-04-04T07:55:19.641Z,63.61
2023-04-04T07:59:08.868Z,63.01
2023-04-04T08:02:56.639Z,63.23
2023-04-04T08:06:37.474Z,62.81
2023-04-04T08:10:19.653Z,62.81
2023-04-04T08:14:08.817Z,62.84
2023-04-04T08:17:56.431Z,62.88
2023-04-04T08:21:45.455Z,62.32
2023-04-04T08:25:20.089Z,62.07
2023-04-04T08:29:07.141Z,61.32
2023-04-04T08:32:47.792Z,61.31
2023-04-04T08:36:26.084Z,61.36
2023-04-04T08:40:09.217Z,61.10
2023-04-04T08:43:45.633Z,61.26
2023-04-04T08:47:28.632Z,61.43
2023-04-04T08:51:10.825Z,61.38
2023-04-04T08:54:43.315Z,61.62
2023-04-04T08:58:32.450Z,61.79
2023-04-04T09:02:14.330Z,62.27
2023-04-04T09:06:03.654Z,62.39
2023-04-04T09:09:55.281Z,62.74
2023-04-04T09:13:41.455Z,62.74
2023-04-04T09:17:30.785Z,62.12
2023-04-04T09:21:15.769Z,61.84
2023-04-04T09:25:04.736Z,62.26
2023-04-04T09:28:53.595Z,62.84
2023-04-04T09:32:39.510Z,61.79
2023-04-04T09:36:00.275Z,60.98
2023-04-04T09:39:48.501Z,60.14
2023-04-04T09:50:53.865Z,58.54
2023-04-04T09:54:48.378Z,58.30
2023-04-04T09:58:46.354Z,58.45
2023-04-04T10:02:39.367Z,58.61
2023-04-04T10:06:28.502Z,58.09
2023-04-04T10:10:16.741Z,57.96
2023-04-04T10:13:58.539Z,58.06
2023-04-04T10:17:37.817Z,57.57
2023-04-04T10:21:20.088Z,57.51
2023-04-04T10:24:50.117Z,57.51
2023-04-04T10:28:14.806Z,57.25
2023-04-04T10:31:51.204Z,57.05
2023-04-04T10:35:35.660Z,56.78
2023-04-04T10:39:24.917Z,56.54
2023-04-04T10:42:47.527Z,56.57
2023-04-04T10:46:25.896Z,56.32
2023-04-04T10:49:50.371Z,55.84
2023-04-04T10:53:32.571Z,55.51
2023-04-04T10:57:22.987Z,55.41
2023-04-04T11:01:02.156Z,55.80
2023-04-04T11:04:56.295Z,55.61
2023-04-04T11:08:35.738Z,55.80
2023-04-04T11:12:23.174Z,55.90
2023-04-04T11:16:12.447Z,56.00
2023-04-04T11:19:43.392Z,55.91
2023-04-04T11:23:50.820Z,55.93
2023-04-04T11:27:22.866Z,55.96
2023-04-04T11:30:49.072Z,55.45
2023-04-04T11:34:21.768Z,54.80
2023-04-04T11:38:01.020Z,54.42
2023-04-04T11:41:24.471Z,54.15
2023-04-04T11:44:30.741Z,53.68
2023-04-04T11:47:47.671Z,53.85
2023-04-04T11:51:13.488Z,53.46
2023-04-04T11:54:47.896Z,53.53
2023-04-04T11:58:00.202Z,53.35
2023-04-04T12:01:32.990Z,54.09
2023-04-04T12:05:04.719Z,54.23
2023-04-04T12:08:12.981Z,53.79
2023-04-04T12:11:24.141Z,52.97
2023-04-04T12:14:32.048Z,52.43
2023-04-04T12:17:54.427Z,51.77
2023-04-04T12:21:17.967Z,51.60
2023-04-04T12:24:49.980Z,51.86
2023-04-04T12:28:15.228Z,51.77
2023-04-04T12:31:39.763Z,51.97
2023-04-04T12:35:03.493Z,52.55
2023-04-04T12:38:40.692Z,52.37
2023-04-04T12:41:31.700Z,51.87
2023-04-04T12:45:15.514Z,51.93
2023-04-04T12:48:42.388Z,51.56
2023-04-04T12:51:48.144Z,51.47
2023-04-04T12:55:07.600Z,51.36
2023-04-04T12:58:10.810Z,51.08
2023-04-04T13:01:24.700Z,50.32
2023-04-04T13:04:55.433Z,50.33
2023-04-04T13:08:47.359Z,50.45
2023-04-04T13:12:37.250Z,50.23
2023-04-04T13:16:24.757Z,50.83
2023-04-04T13:19:25.722Z,51.27
2023-04-04T13:22:22.424Z,51.41
2023-04-04T13:25:10.269Z,51.19
2023-04-04T13:27:48.982Z,50.28
2023-04-04T13:30:32.348Z,49.27
2023-04-04T13:33:19.847Z,48.26
2023-04-04T13:36:21.913Z,47.67
2023-04-04T13:39:06.867Z,47.32
2023-04-04T13:42:18.663Z,47.39
2023-04-04T13:45:21.449Z,47.28
2023-04-04T13:48:29.652Z,47.81
2023-04-04T13:51:27.014Z,47.77
2023-04-04T13:54:35.632Z,47.57
2023-04-04T13:57:27.258Z,47.80
2023-04-04T14:00:37.411Z,47.71
2023-04-04T14:03:31.564Z,47.96
2023-04-04T14:06:59.569Z,47.99
2023-04-04T14:10:17.607Z,48.12
2023-04-04T14:13:28.793Z,48.13
2023-04-04T14:16:24.004Z,48.21
2023-04-04T14:19:26.365Z,48.19
2023-04-04T14:22:33.676Z,48.50
2023-04-04T14:25:54.256Z,48.55
2023-04-04T14:28:50.661Z,48.88
2023-04-04T14:31:38.378Z,48.73
2023-04-04T14:34:23.594Z,47.58
2023-04-04T14:37:28.319Z,46.69
2023-04-04T14:40:28.541Z,46.63
2023-04-04T14:43:19.968Z,46.47
2023-04-04T14:46:42.021Z,46.53
2023-04-04T14:49:48.775Z,46.70
2023-04-04T14:52:55.752Z,47.34
2023-04-04T14:55:58.650Z,47.19
2023-04-04T14:59:32.496Z,46.80
2023-04-04T15:02:33.426Z,46.65
2023-04-04T15:06:14.394Z,47.40
2023-04-04T15:09:36.211Z,46.72
2023-04-04T15:13:00.205Z,46.67
2023-04-04T15:16:21.535Z,46.80
2023-04-04T15:19:55.410Z,46.88
2023-04-04T15:23:33.638Z,46.87
2023-04-04T15:27:16.415Z,47.33
2023-04-04T15:30:35.194Z,47.89
2023-04-04T15:33:59.416Z,48.00
2023-04-04T15:37:48.509Z,48.10
2023-04-04T15:41:07.314Z,47.90
2023-04-04T15:44:30.292Z,47.91
2023-04-04T15:47:58.382Z,47.97
2023-04-04T15:51:02.873Z,47.95
2023-04-04T15:54:43.297Z,48.14
2023-04-04T15:58:32.420Z,47.96
2023-04-04T16:02:13.889Z,48.07
2023-04-04T16:05:42.165Z,48.41
2023-04-04T16:09:10.049Z,48.55
2023-04-04T16:12:29.312Z,48.88
2023-04-04T16:15:39.963Z,48.58
2023-04-04T16:19:18.203Z,48.77
2023-04-04T16:22:55.704Z,48.95
2023-04-04T16:26:26.337Z,48.91
2023-04-04T16:30:04.436Z,48.90
2023-04-04T16:33:19.816Z,49.16
2023-04-04T16:37:05.403Z,49.32
2023-04-04T16:40:25.697Z,49.34
2023-04-04T16:43:47.626Z,49.49
2023-04-04T16:47:29.670Z,49.74
2023-04-04T16:51:12.659Z,49.82
2023-04-04T16:54:15.551Z,50.48
2023-04-04T16:57:46.800Z,50.17
2023-04-04T17:01:23.325Z,50.88
2023-04-04T17:05:12.436Z,51.07
2023-04-04T17:08:45.328Z,52.11
2023-04-04T17:12:27.168Z,52.38
2023-04-04T17:16:09.077Z,52.53
2023-04-04T17:19:45.404Z,52.58
2023-04-04T17:23:34.488Z,52.87
2023-04-04T17:27:14.206Z,52.72
2023-04-04T17:30:53.750Z,53.12
2023-04-04T17:34:36.039Z,53.24
2023-04-04T17:38:23.316Z,53.71
2023-04-04T17:41:56.386Z,54.14
2023-04-04T17:45:45.812Z,54.04
2023-04-04T17:49:17.681Z,54.49
2023-04-04T17:53:06.958Z,54.81
2023-04-04T17:56:56.100Z,55.06
2023-04-04T18:00:44.031Z,55.35
2023-04-04T18:04:23.760Z,55.21
2023-04-04T18:08:12.854Z,55.15
2023-04-04T18:12:01.972Z,55.93
2023-04-04T18:15:50.393Z,55.75
2023-04-04T18:19:40.247Z,55.76
2023-04-04T18:23:28.599Z,56.22
2023-04-04T18:27:03.426Z,56.84
2023-04-04T18:30:52.901Z,56.94
2023-04-04T18:34:41.987Z,56.49
2023-04-04T18:38:30.932Z,56.71
2023-04-04T18:42:05.725Z,56.93
2023-04-04T18:45:40.853Z,57.02
2023-04-04T18:49:28.527Z,57.23
2023-04-04T18:53:17.587Z,57.62
2023-04-04T18:57:05.594Z,57.74
2023-04-04T19:00:55.010Z,57.69
2023-04-04T19:04:43.488Z,58.01
2023-04-04T19:08:32.671Z,58.54
2023-04-04T19:12:13.129Z,58.50
2023-04-04T19:16:02.349Z,59.02
2023-04-04T19:19:44.704Z,59.61
2023-04-04T19:23:32.749Z,60.54
2023-04-04T19:27:22.032Z,61.28
2023-04-04T19:31:19.543Z,61.91
2023-04-04T19:34:59.346Z,62.71
2023-04-04T19:38:48.738Z,62.99
2023-04-04T19:42:40.545Z,62.88
2023-04-04T19:46:29.845Z,62.80
2023-04-04T19:50:01.932Z,62.78
2023-04-04T19:53:52.182Z,63.40
2023-04-04T19:57:39.613Z,63.81
2023-04-04T20:01:21.829Z,63.79
2023-04-04T20:05:05.478Z,64.14
2023-04-04T20:08:55.755Z,64.37
2023-04-04T20:12:36.401Z,64.58
2023-04-04T20:16:15.979Z,64.75
2023-04-04T20:20:04.358Z,65.44
2023-04-04T20:23:53.626Z,64.81
2023-04-04T20:27:39.591Z,64.89
2023-04-04T20:31:28.902Z,63.90
2023-04-04T20:35:20.182Z,63.80
2023-04-04T20:38:59.838Z,63.06
2023-04-04T20:43:04.014Z,62.17
2023-04-04T20:46:53.101Z,61.70
2023-04-04T20:50:42.509Z,61.01
2023-04-04T20:54:32.387Z,61.06
2023-04-04T20:58:22.377Z,60.81
2023-04-04T21:02:12.057Z,60.56
2023-04-04T21:06:11.211Z,60.34
2023-04-04T21:10:00.435Z,60.35
2023-04-04T21:13:49.583Z,60.57
2023-04-04T21:17:38.494Z,60.33
2023-04-04T21:21:48.991Z,60.75
2023-04-04T21:59:45.384Z,61.97
